sensor_id;sensor_type;location;lat;lon;timestamp;P1;durP1;ratioP1;P2;durP2;ratioP2
1649;SDS011;822;53.670;8.676;2022-07-05T00:01:04;7.30;;;5.20;;
1649;SDS011;822;53.670;8.676;2022-07-05T00:03:33;6.63;;;5.43;;
1649;SDS011;822;53.670;8.676;2022-07-05T00:06:00;6.43;;;5.93;;
1649;SDS011;822;53.670;8.676;2022-07-05T00:08:27;7.77;;;5.80;;
1649;SDS011;822;53.670;8.676;2022-07-05T00:10:53;6.83;;;6.13;;
1649;SDS011;822;53.670;8.676;2022-07-05T00:13:20;6.60;;;6.03;;
1649;SDS011;822;53.670;8.676;2022-07-05T00:15:47;6.80;;;6.13;;
1649;SDS011;822;53.670;8.676;2022-07-05T00:18:15;6.43;;;5.93;;
1649;SDS011;822;53.670;8.676;2022-07-05T00:20:44;5.90;;;5.40;;
1649;SDS011;822;53.670;8.676;2022-07-05T00:23:11;6.90;;;6.20;;
1649;SDS011;822;53.670;8.676;2022-07-05T00:25:38;7.27;;;6.63;;
1649;SDS011;822;53.670;8.676;2022-07-05T00:28:04;7.07;;;6.13;;
1649;SDS011;822;53.670;8.676;2022-07-05T00:30:31;6.60;;;5.53;;
1649;SDS011;822;53.670;8.676;2022-07-05T00:32:58;5.80;;;5.40;;
1649;SDS011;822;53.670;8.676;2022-07-05T00:35:25;6.83;;;6.33;;
1649;SDS011;822;53.670;8.676;2022-07-05T00:37:53;6.63;;;6.20;;
1649;SDS011;822;53.670;8.676;2022-07-05T00:40:20;6.50;;;6.10;;
1649;SDS011;822;53.670;8.676;2022-07-05T00:42:47;7.07;;;6.37;;
1649;SDS011;822;53.670;8.676;2022-07-05T00:45:14;7.30;;;6.57;;
1649;SDS011;822;53.670;8.676;2022-07-05T00:47:41;9.23;;;6.87;;
1649;SDS011;822;53.670;8.676;2022-07-05T00:50:08;7.83;;;7.13;;
1649;SDS011;822;53.670;8.676;2022-07-05T00:52:35;8.40;;;7.37;;
1649;SDS011;822;53.670;8.676;2022-07-05T00:55:08;7.90;;;7.20;;
1649;SDS011;822;53.670;8.676;2022-07-05T00:57:35;7.37;;;6.77;;
1649;SDS011;822;53.670;8.676;2022-07-05T01:00:02;6.87;;;6.30;;
1649;SDS011;822;53.670;8.676;2022-07-05T01:02:31;7.57;;;6.93;;
1649;SDS011;822;53.670;8.676;2022-07-05T01:04:57;9.73;;;6.80;;
1649;SDS011;822;53.670;8.676;2022-07-05T01:07:25;7.40;;;6.83;;
1649;SDS011;822;53.670;8.676;2022-07-05T01:09:52;6.70;;;6.00;;
1649;SDS011;822;53.670;8.676;2022-07-05T01:12:21;7.73;;;6.90;;
1649;SDS011;822;53.670;8.676;2022-07-05T01:14:48;6.23;;;5.83;;
1649;SDS011;822;53.670;8.676;2022-07-05T01:17:15;7.80;;;6.17;;
1649;SDS011;822;53.670;8.676;2022-07-05T01:19:43;5.97;;;5.47;;
1649;SDS011;822;53.670;8.676;2022-07-05T01:22:12;6.57;;;5.97;;
1649;SDS011;822;53.670;8.676;2022-07-05T01:24:44;9.37;;;5.93;;
1649;SDS011;822;53.670;8.676;2022-07-05T01:27:21;5.93;;;5.57;;
1649;SDS011;822;53.670;8.676;2022-07-05T01:29:50;6.53;;;6.00;;
1649;SDS011;822;53.670;8.676;2022-07-05T01:32:17;8.37;;;6.13;;
1649;SDS011;822;53.670;8.676;2022-07-05T01:34:44;5.80;;;5.30;;
1649;SDS011;822;53.670;8.676;2022-07-05T01:37:11;6.20;;;5.70;;
1649;SDS011;822;53.670;8.676;2022-07-05T01:39:38;6.17;;;5.57;;
1649;SDS011;822;53.670;8.676;2022-07-05T01:42:07;5.70;;;5.23;;
1649;SDS011;822;53.670;8.676;2022-07-05T01:44:33;5.27;;;4.87;;
1649;SDS011;822;53.670;8.676;2022-07-05T01:47:03;5.60;;;5.17;;
1649;SDS011;822;53.670;8.676;2022-07-05T01:49:34;7.67;;;5.40;;
1649;SDS011;822;53.670;8.676;2022-07-05T01:52:03;6.17;;;4.93;;
1649;SDS011;822;53.670;8.676;2022-07-05T01:54:34;5.60;;;5.10;;
1649;SDS011;822;53.670;8.676;2022-07-05T01:57:01;8.97;;;5.40;;
1649;SDS011;822;53.670;8.676;2022-07-05T01:59:31;6.57;;;4.70;;
1649;SDS011;822;53.670;8.676;2022-07-05T02:01:58;6.50;;;4.97;;
1649;SDS011;822;53.670;8.676;2022-07-05T02:04:25;7.40;;;5.13;;
1649;SDS011;822;53.670;8.676;2022-07-05T02:06:51;4.33;;;4.03;;
1649;SDS011;822;53.670;8.676;2022-07-05T02:09:18;5.03;;;4.73;;
1649;SDS011;822;53.670;8.676;2022-07-05T02:11:45;6.63;;;4.77;;
1649;SDS011;822;53.670;8.676;2022-07-05T02:14:12;5.07;;;4.67;;
1649;SDS011;822;53.670;8.676;2022-07-05T02:16:40;5.43;;;4.80;;
1649;SDS011;822;53.670;8.676;2022-07-05T02:19:07;5.30;;;4.90;;
1649;SDS011;822;53.670;8.676;2022-07-05T02:21:34;8.00;;;5.40;;
1649;SDS011;822;53.670;8.676;2022-07-05T02:24:01;6.20;;;4.83;;
1649;SDS011;822;53.670;8.676;2022-07-05T02:26:27;6.33;;;5.73;;
1649;SDS011;822;53.670;8.676;2022-07-05T02:28:54;7.00;;;5.20;;
1649;SDS011;822;53.670;8.676;2022-07-05T02:31:21;6.83;;;5.50;;
1649;SDS011;822;53.670;8.676;2022-07-05T02:33:49;6.90;;;6.00;;
1649;SDS011;822;53.670;8.676;2022-07-05T02:36:17;5.97;;;5.47;;
1649;SDS011;822;53.670;8.676;2022-07-05T02:38:44;6.00;;;5.43;;
1649;SDS011;822;53.670;8.676;2022-07-05T02:41:11;6.30;;;5.47;;
1649;SDS011;822;53.670;8.676;2022-07-05T02:43:39;5.73;;;5.23;;
1649;SDS011;822;53.670;8.676;2022-07-05T02:46:06;5.67;;;5.37;;
1649;SDS011;822;53.670;8.676;2022-07-05T02:48:34;6.03;;;5.10;;
1649;SDS011;822;53.670;8.676;2022-07-05T02:51:04;5.23;;;4.83;;
1649;SDS011;822;53.670;8.676;2022-07-05T02:53:31;5.83;;;5.30;;
1649;SDS011;822;53.670;8.676;2022-07-05T02:55:59;6.53;;;4.97;;
1649;SDS011;822;53.670;8.676;2022-07-05T02:58:26;4.80;;;4.50;;
1649;SDS011;822;53.670;8.676;2022-07-05T03:00:53;4.83;;;4.33;;
1649;SDS011;822;53.670;8.676;2022-07-05T03:03:20;5.63;;;4.90;;
1649;SDS011;822;53.670;8.676;2022-07-05T03:05:47;5.87;;;5.00;;
1649;SDS011;822;53.670;8.676;2022-07-05T03:08:15;4.40;;;4.10;;
1649;SDS011;822;53.670;8.676;2022-07-05T03:10:42;5.07;;;4.60;;
1649;SDS011;822;53.670;8.676;2022-07-05T03:13:09;5.03;;;4.63;;
1649;SDS011;822;53.670;8.676;2022-07-05T03:15:36;5.67;;;5.17;;
1649;SDS011;822;53.670;8.676;2022-07-05T03:18:02;7.10;;;5.10;;
1649;SDS011;822;53.670;8.676;2022-07-05T03:20:29;5.80;;;4.67;;
1649;SDS011;822;53.670;8.676;2022-07-05T03:22:56;6.60;;;6.00;;
1649;SDS011;822;53.670;8.676;2022-07-05T03:25:24;4.90;;;4.40;;
1649;SDS011;822;53.670;8.676;2022-07-05T03:27:51;5.33;;;4.10;;
1649;SDS011;822;53.670;8.676;2022-07-05T03:30:18;4.30;;;3.90;;
1649;SDS011;822;53.670;8.676;2022-07-05T03:32:45;4.47;;;4.07;;
1649;SDS011;822;53.670;8.676;2022-07-05T03:35:12;4.30;;;3.97;;
1649;SDS011;822;53.670;8.676;2022-07-05T03:37:39;6.47;;;4.17;;
1649;SDS011;822;53.670;8.676;2022-07-05T03:40:06;5.87;;;4.20;;
1649;SDS011;822;53.670;8.676;2022-07-05T03:42:35;3.40;;;3.10;;
1649;SDS011;822;53.670;8.676;2022-07-05T03:45:02;5.33;;;4.90;;
1649;SDS011;822;53.670;8.676;2022-07-05T03:47:29;4.50;;;3.83;;
1649;SDS011;822;53.670;8.676;2022-07-05T03:49:56;4.10;;;3.80;;
1649;SDS011;822;53.670;8.676;2022-07-05T03:52:23;6.70;;;4.53;;
1649;SDS011;822;53.670;8.676;2022-07-05T03:54:50;4.73;;;4.30;;
1649;SDS011;822;53.670;8.676;2022-07-05T03:57:17;4.20;;;3.90;;
1649;SDS011;822;53.670;8.676;2022-07-05T03:59:45;4.57;;;4.07;;
1649;SDS011;822;53.670;8.676;2022-07-05T04:02:12;6.03;;;3.90;;
1649;SDS011;822;53.670;8.676;2022-07-05T04:04:39;4.73;;;3.93;;
1649;SDS011;822;53.670;8.676;2022-07-05T04:07:06;3.80;;;3.60;;
1649;SDS011;822;53.670;8.676;2022-07-05T04:09:33;3.90;;;3.60;;
1649;SDS011;822;53.670;8.676;2022-07-05T04:11:59;4.43;;;4.13;;
1649;SDS011;822;53.670;8.676;2022-07-05T04:14:26;5.73;;;3.93;;
1649;SDS011;822;53.670;8.676;2022-07-05T04:16:55;4.20;;;3.90;;
1649;SDS011;822;53.670;8.676;2022-07-05T04:19:22;4.23;;;3.70;;
1649;SDS011;822;53.670;8.676;2022-07-05T04:21:48;3.80;;;3.50;;
1649;SDS011;822;53.670;8.676;2022-07-05T04:24:15;4.20;;;3.80;;
1649;SDS011;822;53.670;8.676;2022-07-05T04:26:42;3.77;;;3.23;;
1649;SDS011;822;53.670;8.676;2022-07-05T04:29:09;3.30;;;3.00;;
1649;SDS011;822;53.670;8.676;2022-07-05T04:31:36;4.70;;;3.63;;
1649;SDS011;822;53.670;8.676;2022-07-05T04:34:04;3.47;;;3.17;;
1649;SDS011;822;53.670;8.676;2022-07-05T04:36:31;3.00;;;2.60;;
1649;SDS011;822;53.670;8.676;2022-07-05T04:38:58;3.83;;;3.17;;
1649;SDS011;822;53.670;8.676;2022-07-05T04:41:25;2.70;;;2.50;;
1649;SDS011;822;53.670;8.676;2022-07-05T04:43:52;2.70;;;2.50;;
1649;SDS011;822;53.670;8.676;2022-07-05T04:46:19;3.93;;;2.50;;
1649;SDS011;822;53.670;8.676;2022-07-05T04:48:46;2.57;;;2.37;;
1649;SDS011;822;53.670;8.676;2022-07-05T04:51:14;4.97;;;2.80;;
1649;SDS011;822;53.670;8.676;2022-07-05T04:53:41;2.80;;;2.60;;
1649;SDS011;822;53.670;8.676;2022-07-05T04:56:08;3.37;;;2.63;;
1649;SDS011;822;53.670;8.676;2022-07-05T04:58:35;3.00;;;2.70;;
1649;SDS011;822;53.670;8.676;2022-07-05T05:01:02;3.40;;;2.93;;
1649;SDS011;822;53.670;8.676;2022-07-05T05:03:29;3.10;;;2.77;;
1649;SDS011;822;53.670;8.676;2022-07-05T05:05:56;5.43;;;2.63;;
1649;SDS011;822;53.670;8.676;2022-07-05T05:08:24;2.50;;;2.40;;
1649;SDS011;822;53.670;8.676;2022-07-05T05:10:51;3.40;;;2.30;;
1649;SDS011;822;53.670;8.676;2022-07-05T05:13:18;2.90;;;2.57;;
1649;SDS011;822;53.670;8.676;2022-07-05T05:15:45;3.33;;;3.03;;
1649;SDS011;822;53.670;8.676;2022-07-05T05:18:12;3.40;;;2.83;;
1649;SDS011;822;53.670;8.676;2022-07-05T05:20:39;3.30;;;3.00;;
1649;SDS011;822;53.670;8.676;2022-07-05T05:23:05;2.83;;;2.53;;
1649;SDS011;822;53.670;8.676;2022-07-05T05:25:34;3.30;;;3.00;;
1649;SDS011;822;53.670;8.676;2022-07-05T05:28:01;3.30;;;2.73;;
1649;SDS011;822;53.670;8.676;2022-07-05T05:30:29;2.70;;;2.50;;
1649;SDS011;822;53.670;8.676;2022-07-05T05:32:55;3.83;;;3.17;;
1649;SDS011;822;53.670;8.676;2022-07-05T05:35:22;2.77;;;2.57;;
1649;SDS011;822;53.670;8.676;2022-07-05T05:37:50;6.30;;;2.67;;
1649;SDS011;822;53.670;8.676;2022-07-05T05:40:18;3.37;;;3.07;;
1649;SDS011;822;53.670;8.676;2022-07-05T05:42:46;3.63;;;3.30;;
1649;SDS011;822;53.670;8.676;2022-07-05T05:45:13;2.60;;;2.40;;
1649;SDS011;822;53.670;8.676;2022-07-05T05:47:44;3.10;;;2.80;;
1649;SDS011;822;53.670;8.676;2022-07-05T05:50:12;2.90;;;2.43;;
1649;SDS011;822;53.670;8.676;2022-07-05T05:52:38;2.77;;;2.57;;
1649;SDS011;822;53.670;8.676;2022-07-05T05:55:06;4.70;;;2.60;;
1649;SDS011;822;53.670;8.676;2022-07-05T05:57:36;5.80;;;3.07;;
1649;SDS011;822;53.670;8.676;2022-07-05T06:00:05;2.73;;;2.43;;
1649;SDS011;822;53.670;8.676;2022-07-05T06:02:33;5.47;;;2.83;;
1649;SDS011;822;53.670;8.676;2022-07-05T06:05:00;3.40;;;2.47;;
1649;SDS011;822;53.670;8.676;2022-07-05T06:07:27;6.20;;;2.83;;
1649;SDS011;822;53.670;8.676;2022-07-05T06:09:54;2.97;;;2.67;;
1649;SDS011;822;53.670;8.676;2022-07-05T06:12:21;2.90;;;1.90;;
1649;SDS011;822;53.670;8.676;2022-07-05T06:14:48;3.13;;;1.97;;
1649;SDS011;822;53.670;8.676;2022-07-05T06:17:16;2.83;;;2.37;;
1649;SDS011;822;53.670;8.676;2022-07-05T06:19:43;2.80;;;2.03;;
1649;SDS011;822;53.670;8.676;2022-07-05T06:22:10;4.60;;;1.97;;
1649;SDS011;822;53.670;8.676;2022-07-05T06:24:37;2.53;;;2.20;;
1649;SDS011;822;53.670;8.676;2022-07-05T06:27:04;3.13;;;2.17;;
1649;SDS011;822;53.670;8.676;2022-07-05T06:29:31;3.17;;;1.60;;
1649;SDS011;822;53.670;8.676;2022-07-05T06:31:58;2.83;;;2.17;;
1649;SDS011;822;53.670;8.676;2022-07-05T06:34:27;1.90;;;1.77;;
1649;SDS011;822;53.670;8.676;2022-07-05T06:36:54;2.37;;;1.80;;
1649;SDS011;822;53.670;8.676;2022-07-05T06:39:21;3.67;;;1.90;;
1649;SDS011;822;53.670;8.676;2022-07-05T06:41:48;2.40;;;1.60;;
1649;SDS011;822;53.670;8.676;2022-07-05T06:44:17;2.80;;;1.83;;
1649;SDS011;822;53.670;8.676;2022-07-05T06:46:44;2.00;;;1.90;;
1649;SDS011;822;53.670;8.676;2022-07-05T06:49:11;4.80;;;1.97;;
1649;SDS011;822;53.670;8.676;2022-07-05T06:51:39;1.63;;;1.50;;
1649;SDS011;822;53.670;8.676;2022-07-05T06:54:06;2.03;;;1.20;;
1649;SDS011;822;53.670;8.676;2022-07-05T06:56:33;4.40;;;1.80;;
1649;SDS011;822;53.670;8.676;2022-07-05T06:59:00;1.67;;;1.57;;
1649;SDS011;822;53.670;8.676;2022-07-05T07:01:27;2.23;;;1.70;;
1649;SDS011;822;53.670;8.676;2022-07-05T07:03:53;1.53;;;1.43;;
1649;SDS011;822;53.670;8.676;2022-07-05T07:06:20;2.30;;;1.87;;
1649;SDS011;822;53.670;8.676;2022-07-05T07:08:49;2.27;;;1.90;;
1649;SDS011;822;53.670;8.676;2022-07-05T07:11:41;3.37;;;1.93;;
1649;SDS011;822;53.670;8.676;2022-07-05T07:14:09;2.50;;;1.90;;
1649;SDS011;822;53.670;8.676;2022-07-05T07:16:36;2.33;;;1.90;;
1649;SDS011;822;53.670;8.676;2022-07-05T07:19:03;2.53;;;1.87;;
1649;SDS011;822;53.670;8.676;2022-07-05T07:21:30;1.93;;;1.40;;
1649;SDS011;822;53.670;8.676;2022-07-05T07:23:58;4.80;;;2.20;;
1649;SDS011;822;53.670;8.676;2022-07-05T07:26:26;2.10;;;1.70;;
1649;SDS011;822;53.670;8.676;2022-07-05T07:28:52;2.60;;;1.70;;
1649;SDS011;822;53.670;8.676;2022-07-05T07:31:19;3.33;;;1.60;;
1649;SDS011;822;53.670;8.676;2022-07-05T07:33:47;2.67;;;1.53;;
1649;SDS011;822;53.670;8.676;2022-07-05T07:36:15;2.60;;;1.77;;
1649;SDS011;822;53.670;8.676;2022-07-05T07:38:41;2.13;;;2.03;;
1649;SDS011;822;53.670;8.676;2022-07-05T07:41:10;2.07;;;1.97;;
1649;SDS011;822;53.670;8.676;2022-07-05T07:43:37;1.80;;;1.53;;
1649;SDS011;822;53.670;8.676;2022-07-05T07:46:04;4.10;;;2.00;;
1649;SDS011;822;53.670;8.676;2022-07-05T07:48:31;2.53;;;1.50;;
1649;SDS011;822;53.670;8.676;2022-07-05T07:50:58;3.53;;;1.60;;
1649;SDS011;822;53.670;8.676;2022-07-05T07:53:25;2.73;;;1.30;;
1649;SDS011;822;53.670;8.676;2022-07-05T07:55:51;2.67;;;1.60;;
1649;SDS011;822;53.670;8.676;2022-07-05T07:58:20;2.00;;;1.17;;
1649;SDS011;822;53.670;8.676;2022-07-05T08:00:47;2.97;;;1.57;;
1649;SDS011;822;53.670;8.676;2022-07-05T08:03:13;3.13;;;1.43;;
1649;SDS011;822;53.670;8.676;2022-07-05T08:05:41;3.00;;;1.77;;
1649;SDS011;822;53.670;8.676;2022-07-05T08:08:08;2.23;;;1.37;;
1649;SDS011;822;53.670;8.676;2022-07-05T08:10:35;2.40;;;1.67;;
1649;SDS011;822;53.670;8.676;2022-07-05T08:13:02;1.20;;;1.10;;
1649;SDS011;822;53.670;8.676;2022-07-05T08:15:30;1.63;;;1.43;;
1649;SDS011;822;53.670;8.676;2022-07-05T08:17:57;4.83;;;1.47;;
1649;SDS011;822;53.670;8.676;2022-07-05T08:20:41;2.00;;;1.50;;
1649;SDS011;822;53.670;8.676;2022-07-05T08:23:26;1.80;;;1.13;;
1649;SDS011;822;53.670;8.676;2022-07-05T08:25:54;2.10;;;1.43;;
1649;SDS011;822;53.670;8.676;2022-07-05T08:28:20;2.40;;;1.60;;
1649;SDS011;822;53.670;8.676;2022-07-05T08:30:49;1.30;;;1.20;;
1649;SDS011;822;53.670;8.676;2022-07-05T08:33:15;1.60;;;1.50;;
1649;SDS011;822;53.670;8.676;2022-07-05T08:35:42;2.53;;;1.47;;
1649;SDS011;822;53.670;8.676;2022-07-05T08:38:09;1.27;;;1.17;;
1649;SDS011;822;53.670;8.676;2022-07-05T08:40:37;2.40;;;1.10;;
1649;SDS011;822;53.670;8.676;2022-07-05T08:43:06;2.63;;;1.37;;
1649;SDS011;822;53.670;8.676;2022-07-05T08:45:34;1.17;;;1.03;;
1649;SDS011;822;53.670;8.676;2022-07-05T08:48:03;2.63;;;1.60;;
1649;SDS011;822;53.670;8.676;2022-07-05T08:50:31;1.90;;;1.20;;
1649;SDS011;822;53.670;8.676;2022-07-05T08:52:59;2.00;;;1.20;;
1649;SDS011;822;53.670;8.676;2022-07-05T08:55:26;1.63;;;1.47;;
1649;SDS011;822;53.670;8.676;2022-07-05T08:57:53;2.40;;;1.23;;
1649;SDS011;822;53.670;8.676;2022-07-05T09:00:21;1.97;;;1.27;;
1649;SDS011;822;53.670;8.676;2022-07-05T09:02:48;2.10;;;1.30;;
1649;SDS011;822;53.670;8.676;2022-07-05T09:05:18;2.23;;;1.43;;
1649;SDS011;822;53.670;8.676;2022-07-05T09:07:48;1.30;;;1.20;;
1649;SDS011;822;53.670;8.676;2022-07-05T09:10:25;2.30;;;1.93;;
1649;SDS011;822;53.670;8.676;2022-07-05T09:12:53;1.10;;;1.00;;
1649;SDS011;822;53.670;8.676;2022-07-05T09:15:21;2.00;;;1.40;;
1649;SDS011;822;53.670;8.676;2022-07-05T09:17:48;2.53;;;1.13;;
1649;SDS011;822;53.670;8.676;2022-07-05T09:20:16;1.87;;;1.10;;
1649;SDS011;822;53.670;8.676;2022-07-05T09:22:45;1.70;;;1.20;;
1649;SDS011;822;53.670;8.676;2022-07-05T09:25:14;4.20;;;1.07;;
1649;SDS011;822;53.670;8.676;2022-07-05T09:27:46;2.80;;;0.90;;
1649;SDS011;822;53.670;8.676;2022-07-05T09:30:22;1.50;;;1.00;;
1649;SDS011;822;53.670;8.676;2022-07-05T09:33:01;1.63;;;1.10;;
1649;SDS011;822;53.670;8.676;2022-07-05T09:35:30;3.10;;;1.20;;
1649;SDS011;822;53.670;8.676;2022-07-05T09:37:58;1.23;;;1.07;;
1649;SDS011;822;53.670;8.676;2022-07-05T09:40:29;2.03;;;0.93;;
1649;SDS011;822;53.670;8.676;2022-07-05T09:43:09;1.27;;;0.80;;
1649;SDS011;822;53.670;8.676;2022-07-05T09:45:37;3.93;;;1.40;;
1649;SDS011;822;53.670;8.676;2022-07-05T09:48:04;1.40;;;0.80;;
1649;SDS011;822;53.670;8.676;2022-07-05T09:50:36;1.67;;;1.03;;
1649;SDS011;822;53.670;8.676;2022-07-05T09:53:03;1.20;;;0.80;;
1649;SDS011;822;53.670;8.676;2022-07-05T09:55:31;2.87;;;1.10;;
1649;SDS011;822;53.670;8.676;2022-07-05T09:57:58;1.10;;;1.00;;
1649;SDS011;822;53.670;8.676;2022-07-05T10:00:25;0.90;;;0.80;;
1649;SDS011;822;53.670;8.676;2022-07-05T10:02:52;1.97;;;0.90;;
1649;SDS011;822;53.670;8.676;2022-07-05T10:05:29;2.53;;;0.90;;
1649;SDS011;822;53.670;8.676;2022-07-05T10:07:59;2.37;;;1.20;;
1649;SDS011;822;53.670;8.676;2022-07-05T10:10:27;1.17;;;1.00;;
1649;SDS011;822;53.670;8.676;2022-07-05T10:12:56;1.80;;;1.00;;
1649;SDS011;822;53.670;8.676;2022-07-05T10:15:24;1.73;;;1.00;;
1649;SDS011;822;53.670;8.676;2022-07-05T10:17:53;3.20;;;1.00;;
1649;SDS011;822;53.670;8.676;2022-07-05T10:20:24;2.10;;;1.30;;
1649;SDS011;822;53.670;8.676;2022-07-05T10:22:52;1.20;;;1.10;;
1649;SDS011;822;53.670;8.676;2022-07-05T10:25:21;2.70;;;1.10;;
1649;SDS011;822;53.670;8.676;2022-07-05T10:27:49;1.10;;;1.00;;
1649;SDS011;822;53.670;8.676;2022-07-05T10:30:19;0.87;;;0.70;;
1649;SDS011;822;53.670;8.676;2022-07-05T10:32:46;1.53;;;0.90;;
1649;SDS011;822;53.670;8.676;2022-07-05T10:35:14;1.13;;;0.63;;
1649;SDS011;822;53.670;8.676;2022-07-05T10:37:42;1.13;;;0.73;;
1649;SDS011;822;53.670;8.676;2022-07-05T10:40:09;1.33;;;0.67;;
1649;SDS011;822;53.670;8.676;2022-07-05T10:42:39;1.13;;;0.70;;
1649;SDS011;822;53.670;8.676;2022-07-05T10:45:26;1.93;;;0.90;;
1649;SDS011;822;53.670;8.676;2022-07-05T10:50:43;2.17;;;0.80;;
1649;SDS011;822;53.670;8.676;2022-07-05T10:53:11;1.20;;;0.80;;
1649;SDS011;822;53.670;8.676;2022-07-05T10:55:48;1.53;;;0.90;;
1649;SDS011;822;53.670;8.676;2022-07-05T10:58:23;1.47;;;1.27;;
1649;SDS011;822;53.670;8.676;2022-07-05T11:04:19;2.13;;;0.93;;
1649;SDS011;822;53.670;8.676;2022-07-05T11:06:51;3.90;;;1.20;;
1649;SDS011;822;53.670;8.676;2022-07-05T11:09:19;2.80;;;1.40;;
1649;SDS011;822;53.670;8.676;2022-07-05T11:11:47;2.17;;;1.10;;
1649;SDS011;822;53.670;8.676;2022-07-05T11:14:40;1.23;;;1.10;;
1649;SDS011;822;53.670;8.676;2022-07-05T11:17:16;2.50;;;1.33;;
1649;SDS011;822;53.670;8.676;2022-07-05T11:22:38;1.37;;;1.00;;
1649;SDS011;822;53.670;8.676;2022-07-05T11:25:07;2.30;;;1.30;;
1649;SDS011;822;53.670;8.676;2022-07-05T11:27:36;2.93;;;1.10;;
1649;SDS011;822;53.670;8.676;2022-07-05T11:30:28;2.40;;;1.37;;
1649;SDS011;822;53.670;8.676;2022-07-05T11:32:55;3.50;;;1.40;;
1649;SDS011;822;53.670;8.676;2022-07-05T11:35:28;3.27;;;0.90;;
1649;SDS011;822;53.670;8.676;2022-07-05T11:37:59;2.80;;;0.90;;
1649;SDS011;822;53.670;8.676;2022-07-05T11:40:30;2.53;;;1.30;;
1649;SDS011;822;53.670;8.676;2022-07-05T11:42:57;1.87;;;1.20;;
1649;SDS011;822;53.670;8.676;2022-07-05T11:45:25;2.10;;;1.17;;
1649;SDS011;822;53.670;8.676;2022-07-05T11:47:54;2.77;;;1.17;;
1649;SDS011;822;53.670;8.676;2022-07-05T11:50:26;3.03;;;1.43;;
1649;SDS011;822;53.670;8.676;2022-07-05T11:52:55;1.77;;;1.10;;
1649;SDS011;822;53.670;8.676;2022-07-05T11:55:23;6.93;;;1.30;;
1649;SDS011;822;53.670;8.676;2022-07-05T11:57:51;1.20;;;1.10;;
1649;SDS011;822;53.670;8.676;2022-07-05T12:00:29;5.47;;;1.80;;
1649;SDS011;822;53.670;8.676;2022-07-05T12:02:59;3.80;;;1.63;;
1649;SDS011;822;53.670;8.676;2022-07-05T12:05:30;4.67;;;1.73;;
1649;SDS011;822;53.670;8.676;2022-07-05T12:08:03;4.30;;;1.43;;
1649;SDS011;822;53.670;8.676;2022-07-05T12:10:30;2.67;;;1.43;;
1649;SDS011;822;53.670;8.676;2022-07-05T12:13:15;2.70;;;1.30;;
1649;SDS011;822;53.670;8.676;2022-07-05T12:15:42;3.27;;;1.27;;
1649;SDS011;822;53.670;8.676;2022-07-05T12:18:13;3.63;;;1.30;;
1649;SDS011;822;53.670;8.676;2022-07-05T12:20:41;2.13;;;1.07;;
1649;SDS011;822;53.670;8.676;2022-07-05T12:23:08;2.20;;;1.00;;
1649;SDS011;822;53.670;8.676;2022-07-05T12:25:37;3.87;;;1.10;;
1649;SDS011;822;53.670;8.676;2022-07-05T12:28:03;1.10;;;0.80;;
1649;SDS011;822;53.670;8.676;2022-07-05T12:30:33;2.53;;;1.00;;
1649;SDS011;822;53.670;8.676;2022-07-05T12:33:07;1.20;;;1.00;;
1649;SDS011;822;53.670;8.676;2022-07-05T12:35:39;2.30;;;0.80;;
1649;SDS011;822;53.670;8.676;2022-07-05T12:38:10;2.87;;;1.13;;
1649;SDS011;822;53.670;8.676;2022-07-05T12:40:40;3.57;;;1.30;;
1649;SDS011;822;53.670;8.676;2022-07-05T12:43:09;2.97;;;1.30;;
1649;SDS011;822;53.670;8.676;2022-07-05T12:45:40;2.60;;;1.10;;
1649;SDS011;822;53.670;8.676;2022-07-05T12:48:12;2.90;;;1.10;;
1649;SDS011;822;53.670;8.676;2022-07-05T12:50:48;3.03;;;1.23;;
1649;SDS011;822;53.670;8.676;2022-07-05T12:53:23;2.60;;;1.07;;
1649;SDS011;822;53.670;8.676;2022-07-05T12:56:22;2.53;;;0.90;;
1649;SDS011;822;53.670;8.676;2022-07-05T12:59:09;1.77;;;0.93;;
1649;SDS011;822;53.670;8.676;2022-07-05T13:01:41;3.23;;;1.43;;
1649;SDS011;822;53.670;8.676;2022-07-05T13:04:20;2.97;;;1.20;;
1649;SDS011;822;53.670;8.676;2022-07-05T13:06:49;3.03;;;1.30;;
1649;SDS011;822;53.670;8.676;2022-07-05T13:09:30;1.83;;;1.10;;
1649;SDS011;822;53.670;8.676;2022-07-05T13:12:05;2.83;;;1.80;;
1649;SDS011;822;53.670;8.676;2022-07-05T13:14:33;3.90;;;1.40;;
1649;SDS011;822;53.670;8.676;2022-07-05T13:17:00;7.37;;;1.20;;
1649;SDS011;822;53.670;8.676;2022-07-05T13:19:27;2.30;;;1.43;;
1649;SDS011;822;53.670;8.676;2022-07-05T13:21:55;5.00;;;1.30;;
1649;SDS011;822;53.670;8.676;2022-07-05T13:24:22;2.97;;;1.23;;
1649;SDS011;822;53.670;8.676;2022-07-05T13:26:49;2.60;;;1.43;;
1649;SDS011;822;53.670;8.676;2022-07-05T13:29:16;4.27;;;1.47;;
1649;SDS011;822;53.670;8.676;2022-07-05T13:31:43;2.00;;;1.47;;
1649;SDS011;822;53.670;8.676;2022-07-05T13:34:11;7.83;;;1.30;;
1649;SDS011;822;53.670;8.676;2022-07-05T13:36:38;2.77;;;1.73;;
1649;SDS011;822;53.670;8.676;2022-07-05T13:39:12;5.07;;;1.20;;
1649;SDS011;822;53.670;8.676;2022-07-05T13:41:40;3.73;;;1.23;;
1649;SDS011;822;53.670;8.676;2022-07-05T13:44:08;1.70;;;1.20;;
1649;SDS011;822;53.670;8.676;2022-07-05T13:46:39;4.80;;;2.30;;
1649;SDS011;822;53.670;8.676;2022-07-05T13:49:07;4.57;;;1.50;;
1649;SDS011;822;53.670;8.676;2022-07-05T13:51:35;2.97;;;1.40;;
1649;SDS011;822;53.670;8.676;2022-07-05T13:54:02;3.93;;;1.43;;
1649;SDS011;822;53.670;8.676;2022-07-05T13:56:33;5.50;;;1.50;;
1649;SDS011;822;53.670;8.676;2022-07-05T13:59:01;3.37;;;1.60;;
1649;SDS011;822;53.670;8.676;2022-07-05T14:01:29;3.07;;;1.60;;
1649;SDS011;822;53.670;8.676;2022-07-05T14:03:59;2.40;;;1.50;;
1649;SDS011;822;53.670;8.676;2022-07-05T14:06:27;2.20;;;1.50;;
1649;SDS011;822;53.670;8.676;2022-07-05T14:08:55;3.70;;;1.50;;
1649;SDS011;822;53.670;8.676;2022-07-05T14:11:22;2.50;;;1.37;;
1649;SDS011;822;53.670;8.676;2022-07-05T14:13:52;3.23;;;1.37;;
1649;SDS011;822;53.670;8.676;2022-07-05T14:16:19;2.20;;;1.07;;
1649;SDS011;822;53.670;8.676;2022-07-05T14:18:46;3.50;;;1.40;;
1649;SDS011;822;53.670;8.676;2022-07-05T14:21:14;3.23;;;1.53;;
1649;SDS011;822;53.670;8.676;2022-07-05T14:23:42;4.00;;;1.23;;
1649;SDS011;822;53.670;8.676;2022-07-05T14:26:09;2.83;;;1.23;;
1649;SDS011;822;53.670;8.676;2022-07-05T14:28:36;3.60;;;1.50;;
1649;SDS011;822;53.670;8.676;2022-07-05T14:31:05;3.80;;;1.37;;
1649;SDS011;822;53.670;8.676;2022-07-05T14:33:32;4.13;;;2.20;;
1649;SDS011;822;53.670;8.676;2022-07-05T14:35:59;3.33;;;1.30;;
1649;SDS011;822;53.670;8.676;2022-07-05T14:38:26;2.67;;;1.70;;
1649;SDS011;822;53.670;8.676;2022-07-05T14:40:53;3.13;;;1.53;;
1649;SDS011;822;53.670;8.676;2022-07-05T14:43:20;4.20;;;1.40;;
1649;SDS011;822;53.670;8.676;2022-07-05T14:45:46;6.17;;;1.60;;
1649;SDS011;822;53.670;8.676;2022-07-05T14:48:15;2.30;;;1.30;;
1649;SDS011;822;53.670;8.676;2022-07-05T14:50:42;2.53;;;1.47;;
1649;SDS011;822;53.670;8.676;2022-07-05T14:53:12;3.17;;;1.30;;
1649;SDS011;822;53.670;8.676;2022-07-05T14:55:40;3.67;;;1.80;;
1649;SDS011;822;53.670;8.676;2022-07-05T14:58:08;3.13;;;1.40;;
1649;SDS011;822;53.670;8.676;2022-07-05T15:00:35;3.07;;;1.47;;
1649;SDS011;822;53.670;8.676;2022-07-05T15:03:02;3.70;;;1.80;;
1649;SDS011;822;53.670;8.676;2022-07-05T15:05:33;2.93;;;1.47;;
1649;SDS011;822;53.670;8.676;2022-07-05T15:07:59;3.20;;;1.47;;
1649;SDS011;822;53.670;8.676;2022-07-05T15:10:28;2.83;;;1.47;;
1649;SDS011;822;53.670;8.676;2022-07-05T15:12:56;3.47;;;1.93;;
1649;SDS011;822;53.670;8.676;2022-07-05T15:15:23;3.20;;;1.50;;
1649;SDS011;822;53.670;8.676;2022-07-05T15:17:50;3.17;;;2.07;;
1649;SDS011;822;53.670;8.676;2022-07-05T15:20:17;5.20;;;1.70;;
1649;SDS011;822;53.670;8.676;2022-07-05T15:22:48;1.73;;;1.20;;
1649;SDS011;822;53.670;8.676;2022-07-05T15:25:16;3.53;;;1.73;;
1649;SDS011;822;53.670;8.676;2022-07-05T15:27:43;1.80;;;1.20;;
1649;SDS011;822;53.670;8.676;2022-07-05T15:30:10;2.60;;;1.20;;
1649;SDS011;822;53.670;8.676;2022-07-05T15:32:38;2.47;;;1.23;;
1649;SDS011;822;53.670;8.676;2022-07-05T15:35:05;3.70;;;1.67;;
1649;SDS011;822;53.670;8.676;2022-07-05T15:37:32;1.67;;;1.10;;
1649;SDS011;822;53.670;8.676;2022-07-05T15:40:01;4.47;;;1.83;;
1649;SDS011;822;53.670;8.676;2022-07-05T15:42:28;5.60;;;1.70;;
1649;SDS011;822;53.670;8.676;2022-07-05T15:44:55;1.93;;;1.23;;
1649;SDS011;822;53.670;8.676;2022-07-05T15:47:28;2.70;;;1.77;;